createdAt,value
2018-10-03T00:00:30.507Z,98772.70
2018-10-03T00:02:59.207Z,98764.34
2018-10-03T00:05:27.909Z,98760.25
2018-10-03T00:07:56.988Z,98760.52
2018-10-03T00:10:26.133Z,98755.95
2018-10-03T00:12:55.039Z,98754.34
2018-10-03T00:15:23.784Z,98741.07
2018-10-03T00:17:54.118Z,98744.61
2018-10-03T00:20:22.748Z,98743.82
2018-10-03T00:22:52.276Z,98739.50
2018-10-03T00:25:21.644Z,98743.58
2018-10-03T00:27:50.819Z,98738.47
2018-10-03T00:30:20.057Z,98734.42
2018-10-03T00:32:49.084Z,98737.70
2018-10-03T00:35:18.547Z,98729.08
2018-10-03T00:37:47.672Z,98726.11
2018-10-03T00:40:16.557Z,98717.78
2018-10-03T00:42:46.258Z,98730.23
2018-10-03T00:45:15.059Z,98725.08
2018-10-03T00:47:43.852Z,98717.53
2018-10-03T00:50:13.814Z,98716.78
2018-10-03T00:52:42.992Z,98724.93
2018-10-03T00:55:12.692Z,98720.14
2018-10-03T00:57:41.697Z,98726.66
2018-10-03T01:00:10.822Z,98731.23
2018-10-03T01:02:39.864Z,98731.23
2018-10-03T01:05:09.459Z,98734.92
2018-10-03T01:07:38.363Z,98741.88
2018-10-03T01:10:08.530Z,98725.59
2018-10-03T01:12:37.402Z,98717.98
2018-10-03T01:15:06.183Z,98712.26
2018-10-03T01:17:35.232Z,98701.73
2018-10-03T01:20:04.340Z,98706.34
2018-10-03T01:22:33.437Z,98712.02
2018-10-03T01:25:02.034Z,98714.42
2018-10-03T01:27:31.254Z,98706.28
2018-10-03T01:30:01.350Z,98704.89
2018-10-03T01:32:31.788Z,98707.84
2018-10-03T01:35:01.714Z,98711.30
2018-10-03T01:37:30.954Z,98712.87
2018-10-03T01:40:00.061Z,98714.77
2018-10-03T01:42:29.436Z,98710.67
2018-10-03T01:44:58.649Z,98705.27
2018-10-03T01:47:27.972Z,98715.84
2018-10-03T01:49:56.827Z,98726.38
2018-10-03T01:52:25.544Z,98729.91
2018-10-03T01:54:54.322Z,98732.62
2018-10-03T01:57:23.779Z,98728.84
2018-10-03T01:59:53.019Z,98724.77
2018-10-03T02:02:22.131Z,98727.17
2018-10-03T02:04:51.353Z,98731.48
2018-10-03T02:07:20.273Z,98724.18
2018-10-03T02:09:49.034Z,98726.63
2018-10-03T02:12:19.070Z,98723.64
2018-10-03T02:14:48.534Z,98718.75
2018-10-03T02:17:17.873Z,98720.66
2018-10-03T02:19:46.781Z,98724.20
2018-10-03T02:22:16.967Z,98722.08
2018-10-03T02:24:45.853Z,98716.45
2018-10-03T02:27:15.511Z,98714.08
2018-10-03T02:29:44.772Z,98716.22
2018-10-03T02:32:13.486Z,98714.34
2018-10-03T02:34:43.123Z,98715.16
2018-10-03T02:37:11.948Z,98720.57
2018-10-03T02:39:40.694Z,98713.29
2018-10-03T02:42:10.832Z,98730.06
2018-10-03T02:44:39.867Z,98730.89
2018-10-03T02:47:09.373Z,98742.28
2018-10-03T02:49:38.495Z,98753.85
2018-10-03T02:52:07.933Z,98754.12
2018-10-03T02:54:37.729Z,98757.60
2018-10-03T02:57:07.063Z,98740.80
2018-10-03T02:59:36.255Z,98746.41
2018-10-03T03:02:05.357Z,98744.48
2018-10-03T03:04:34.389Z,98746.91
2018-10-03T03:07:03.925Z,98743.90
2018-10-03T03:09:32.789Z,98747.12
2018-10-03T03:12:02.326Z,98736.83
2018-10-03T03:14:31.301Z,98739.23
2018-10-03T03:17:00.063Z,98742.48
2018-10-03T03:19:29.009Z,98737.88
2018-10-03T03:21:58.446Z,98740.61
2018-10-03T03:24:27.130Z,98731.45
2018-10-03T03:26:55.918Z,98748.27
2018-10-03T03:29:24.921Z,98748.59
2018-10-03T03:31:54.218Z,98735.92
2018-10-03T03:34:22.993Z,98726.78
2018-10-03T03:36:51.835Z,98738.37
2018-10-03T03:39:21.188Z,98735.66
2018-10-03T03:41:50.165Z,98741.05
2018-10-03T03:44:19.008Z,98743.23
2018-10-03T03:46:48.543Z,98731.06
2018-10-03T03:49:17.676Z,98729.48
2018-10-03T03:51:47.118Z,98732.75
2018-10-03T03:54:16.064Z,98738.48
2018-10-03T03:56:44.723Z,98741.52
2018-10-03T03:59:14.579Z,98742.91
2018-10-03T04:01:43.991Z,98746.69
2018-10-03T04:04:14.178Z,98741.28
2018-10-03T04:06:43.297Z,98745.33
2018-10-03T04:09:12.553Z,98740.44
2018-10-03T04:11:41.803Z,98750.70
2018-10-03T04:14:10.985Z,98750.41
2018-10-03T04:16:39.798Z,98755.52
2018-10-03T04:19:08.427Z,98756.31
2018-10-03T04:21:40.175Z,98764.95
2018-10-03T04:24:09.964Z,98766.84
2018-10-03T04:26:39.662Z,98771.18
2018-10-03T04:29:09.271Z,98772.78
2018-10-03T04:31:38.083Z,98775.72
2018-10-03T04:34:07.837Z,98781.39
2018-10-03T04:36:36.723Z,98779.52
2018-10-03T04:39:07.364Z,98786.28
2018-10-03T04:41:36.892Z,98783.58
2018-10-03T04:44:05.600Z,98770.86
2018-10-03T04:46:34.728Z,98774.36
2018-10-03T04:49:04.616Z,98780.33
2018-10-03T04:51:33.270Z,98767.34
2018-10-03T04:54:02.680Z,98785.45
2018-10-03T04:56:31.664Z,98779.75
2018-10-03T04:59:00.633Z,98787.33
2018-10-03T05:01:29.409Z,98787.03
2018-10-03T05:03:58.100Z,98776.20
2018-10-03T05:06:26.705Z,98778.36
2018-10-03T05:08:55.874Z,98783.19
2018-10-03T05:11:24.703Z,98782.09
2018-10-03T05:13:53.313Z,98777.45
2018-10-03T05:16:22.323Z,98776.38
2018-10-03T05:18:50.966Z,98775.01
2018-10-03T05:21:19.984Z,98772.55
2018-10-03T05:23:50.245Z,98780.96
2018-10-03T05:26:18.798Z,98790.20
2018-10-03T05:28:47.679Z,98790.20
2018-10-03T05:31:16.349Z,98806.99
2018-10-03T05:33:45.345Z,98812.94
2018-10-03T05:36:14.023Z,98804.30
2018-10-03T05:38:42.751Z,98793.23
2018-10-03T05:41:11.700Z,98800.24
2018-10-03T05:43:41.238Z,98808.89
2018-10-03T05:46:10.569Z,98814.86
2018-10-03T05:48:39.576Z,98819.99
2018-10-03T05:51:08.615Z,98823.52
2018-10-03T05:53:37.491Z,98835.16
2018-10-03T05:56:06.326Z,98838.69
2018-10-03T05:58:35.499Z,98830.30
2018-10-03T06:01:05.234Z,98837.05
2018-10-03T06:03:33.945Z,98837.59
2018-10-03T06:06:02.725Z,98841.92
2018-10-03T06:08:32.300Z,98834.88
2018-10-03T06:11:01.046Z,98841.35
2018-10-03T06:13:29.817Z,98846.23
2018-10-03T06:15:59.585Z,98841.62
2018-10-03T06:18:29.331Z,98842.16
2018-10-03T06:20:58.355Z,98849.98
2018-10-03T06:23:27.514Z,98854.31
2018-10-03T06:25:56.353Z,98858.91
2018-10-03T06:28:25.289Z,98864.02
2018-10-03T06:30:54.173Z,98865.12
2018-10-03T06:33:24.763Z,98865.12
2018-10-03T06:35:53.841Z,98868.07
2018-10-03T06:38:22.624Z,98871.30
2018-10-03T06:40:52.249Z,98872.11
2018-10-03T06:43:21.529Z,98873.98
2018-10-03T06:45:51.045Z,98877.22
2018-10-03T06:48:19.838Z,98885.61
2018-10-03T06:50:48.724Z,98886.66
2018-10-03T06:53:18.319Z,98885.55
2018-10-03T06:55:47.118Z,98887.44
2018-10-03T06:58:15.921Z,98888.77
2018-10-03T07:00:44.884Z,98897.95
2018-10-03T07:03:13.954Z,98895.23
2018-10-03T07:05:42.884Z,98899.56
2018-10-03T07:08:11.684Z,98899.26
2018-10-03T07:10:40.891Z,98903.84
2018-10-03T07:13:11.224Z,98904.08
2018-10-03T07:15:40.195Z,98901.65
2018-10-03T07:18:09.573Z,98911.89
2018-10-03T07:20:38.690Z,98912.92
2018-10-03T07:23:08.308Z,98908.85
2018-10-03T07:25:38.530Z,98922.95
2018-10-03T07:28:07.641Z,98934.05
2018-10-03T07:30:36.639Z,98931.11
2018-10-03T07:33:05.484Z,98941.36
2018-10-03T07:35:35.149Z,98940.59
2018-10-03T07:38:04.484Z,98940.11
2018-10-03T07:40:33.654Z,98949.05
2018-10-03T07:43:03.399Z,98951.52
2018-10-03T07:45:33.213Z,98956.64
2018-10-03T07:48:02.347Z,98957.23
2018-10-03T07:50:31.699Z,98957.99
2018-10-03T07:53:00.879Z,98963.11
2018-10-03T07:55:29.947Z,98963.40
2018-10-03T07:57:59.144Z,98972.84
2018-10-03T08:00:31.430Z,98962.02
2018-10-03T08:03:01.525Z,98965.58
2018-10-03T08:05:31.817Z,98965.25
2018-10-03T08:08:00.859Z,98952.44
2018-10-03T08:10:30.090Z,98942.26
2018-10-03T08:12:59.521Z,98940.72
2018-10-03T08:15:28.671Z,98932.64
2018-10-03T08:17:57.801Z,98925.95
2018-10-03T08:20:28.002Z,98913.49
2018-10-03T08:22:57.947Z,98914.61
2018-10-03T08:25:27.551Z,98913.55
2018-10-03T08:27:56.899Z,98924.34
2018-10-03T08:30:25.845Z,98929.72
2018-10-03T08:32:55.103Z,98936.06
2018-10-03T08:35:24.305Z,98943.44
2018-10-03T08:37:53.926Z,98948.64
2018-10-03T08:40:22.955Z,98947.45
2018-10-03T08:42:52.061Z,98945.45
2018-10-03T08:45:21.304Z,98953.71
2018-10-03T08:47:51.341Z,98956.60
2018-10-03T08:50:20.782Z,98957.20
2018-10-03T08:52:49.691Z,98955.19
2018-10-03T08:55:19.053Z,98963.75
2018-10-03T08:57:48.690Z,98969.00
2018-10-03T09:00:18.678Z,98965.63
2018-10-03T09:02:47.700Z,98969.75
2018-10-03T09:05:17.116Z,98974.56
2018-10-03T09:07:46.545Z,98969.24
2018-10-03T09:10:18.412Z,98966.64
2018-10-03T09:12:47.667Z,98965.28
2018-10-03T09:15:16.927Z,98967.45
2018-10-03T09:17:46.045Z,98969.61
2018-10-03T09:20:15.198Z,98963.02
2018-10-03T09:22:44.651Z,98958.80
2018-10-03T09:25:13.764Z,98959.81
2018-10-03T09:27:42.930Z,98960.72
2018-10-03T09:30:12.246Z,98958.45
2018-10-03T09:32:43.171Z,98963.03
2018-10-03T09:35:12.526Z,98964.53
2018-10-03T09:37:41.777Z,98972.55
2018-10-03T09:40:11.073Z,98973.34
2018-10-03T09:42:40.245Z,98978.39
2018-10-03T09:45:10.562Z,98977.70
2018-10-03T09:47:40.037Z,98986.15
2018-10-03T09:50:10.848Z,98979.45
2018-10-03T09:52:41.072Z,98990.14
2018-10-03T09:55:11.125Z,98985.39
2018-10-03T09:57:40.331Z,98981.79
2018-10-03T10:00:09.705Z,98981.95
2018-10-03T10:02:38.867Z,98974.30
2018-10-03T10:05:08.212Z,98978.74
2018-10-03T10:07:37.347Z,98975.89
2018-10-03T10:10:06.596Z,98980.55
2018-10-03T10:12:35.736Z,98978.55
2018-10-03T10:15:05.233Z,98989.86
2018-10-03T10:17:34.564Z,98990.51
2018-10-03T10:20:03.507Z,98994.34
2018-10-03T10:22:32.735Z,98994.39
2018-10-03T10:25:02.760Z,98990.75
2018-10-03T10:27:31.856Z,98992.22
2018-10-03T10:30:01.031Z,98987.98
2018-10-03T10:32:33.310Z,98993.75
2018-10-03T10:35:02.552Z,98988.78
2018-10-03T10:37:31.896Z,98997.64
2018-10-03T10:40:01.983Z,98998.44
2018-10-03T10:42:31.412Z,98994.65
2018-10-03T10:45:00.950Z,98995.20
2018-10-03T10:47:30.415Z,98990.69
2018-10-03T10:50:00.718Z,98989.80
2018-10-03T10:52:30.156Z,98990.45
2018-10-03T10:54:59.318Z,98986.84
2018-10-03T10:57:28.365Z,98984.46
2018-10-03T10:59:58.210Z,98980.80
2018-10-03T11:02:28.021Z,98984.69
2018-10-03T11:04:57.168Z,98990.25
2018-10-03T11:07:26.172Z,98997.50
2018-10-03T11:09:55.366Z,98984.83
2018-10-03T11:12:25.946Z,98990.36
2018-10-03T11:14:55.861Z,98987.53
2018-10-03T11:17:26.172Z,98989.78
2018-10-03T11:19:55.359Z,98997.64
2018-10-03T11:22:24.482Z,98988.05
2018-10-03T11:24:53.900Z,98992.45
2018-10-03T11:27:23.616Z,98989.02
2018-10-03T11:29:52.306Z,98989.85
2018-10-03T11:32:22.371Z,98992.63
2018-10-03T11:34:51.723Z,98987.42
2018-10-03T11:37:20.900Z,98987.37
2018-10-03T11:39:49.972Z,98980.86
2018-10-03T11:42:18.891Z,98981.94
2018-10-03T11:44:48.442Z,98983.75
2018-10-03T11:47:17.816Z,98982.77
2018-10-03T11:49:46.895Z,98982.30
2018-10-03T11:52:15.626Z,98977.36
2018-10-03T11:54:44.522Z,98986.31
2018-10-03T11:57:14.777Z,98987.20
2018-10-03T11:59:43.851Z,98986.07
2018-10-03T12:02:13.177Z,98991.95
2018-10-03T12:04:42.897Z,98992.17
2018-10-03T12:07:11.701Z,98988.65
2018-10-03T12:09:40.828Z,98992.27
2018-10-03T12:12:10.102Z,98992.86
2018-10-03T12:14:39.217Z,98997.78
2018-10-03T12:17:08.531Z,99000.00
2018-10-03T12:19:37.751Z,98996.56
2018-10-03T12:22:06.759Z,98991.77
2018-10-03T12:24:36.045Z,98993.45
2018-10-03T12:27:05.256Z,98985.58
2018-10-03T12:29:34.670Z,98997.11
2018-10-03T12:32:03.741Z,98987.08
2018-10-03T12:34:32.837Z,98994.89
2018-10-03T12:37:01.657Z,98996.31
2018-10-03T12:39:30.390Z,98995.19
2018-10-03T12:41:59.787Z,98992.78
2018-10-03T12:44:28.846Z,98993.19
2018-10-03T12:46:58.804Z,98997.27
2018-10-03T12:49:27.656Z,98990.34
2018-10-03T12:51:56.366Z,99000.33
2018-10-03T12:54:25.881Z,99001.03
2018-10-03T12:56:55.961Z,99001.10
2018-10-03T12:59:25.090Z,98996.52
2018-10-03T13:01:54.100Z,98992.72
2018-10-03T13:04:23.625Z,98992.12
2018-10-03T13:06:53.108Z,98983.73
2018-10-03T13:09:22.124Z,98981.94
2018-10-03T13:11:51.196Z,98989.17
2018-10-03T13:14:20.344Z,98988.38
2018-10-03T13:16:49.797Z,98990.05
2018-10-03T13:19:18.567Z,98992.28
2018-10-03T13:21:47.202Z,98990.03
2018-10-03T13:24:15.930Z,98983.67
2018-10-03T13:26:45.797Z,98989.25
2018-10-03T13:29:14.819Z,98984.34
2018-10-03T13:31:43.778Z,98981.31
2018-10-03T13:34:12.480Z,98983.70
2018-10-03T13:36:41.647Z,98978.27
2018-10-03T13:39:11.372Z,98980.14
2018-10-03T13:41:41.158Z,98984.30
2018-10-03T13:44:10.287Z,98979.62
2018-10-03T13:46:39.523Z,98980.14
2018-10-03T13:49:08.802Z,98987.06
2018-10-03T13:51:38.019Z,98981.09
2018-10-03T13:54:07.428Z,98976.59
2018-10-03T13:56:36.391Z,98989.27
2018-10-03T13:59:06.166Z,98986.25
2018-10-03T14:01:35.935Z,98983.58
2018-10-03T14:04:05.213Z,98988.27
2018-10-03T14:06:34.229Z,98978.42
2018-10-03T14:09:03.323Z,98989.28
2018-10-03T14:11:33.392Z,98982.65
2018-10-03T14:14:03.015Z,98978.78
2018-10-03T14:16:32.328Z,98973.88
2018-10-03T14:19:01.433Z,98971.33
2018-10-03T14:21:30.557Z,98975.04
2018-10-03T14:23:59.843Z,98975.04
2018-10-03T14:26:29.839Z,98983.58
2018-10-03T14:28:59.413Z,98981.72
2018-10-03T14:31:28.518Z,98987.66
2018-10-03T14:33:57.211Z,98989.42
2018-10-03T14:36:26.029Z,98995.09
2018-10-03T14:38:55.028Z,98996.63
2018-10-03T14:41:24.235Z,98992.55
2018-10-03T14:43:53.152Z,98999.17
2018-10-03T14:46:22.664Z,98987.59
2018-10-03T14:48:52.149Z,98999.91
2018-10-03T14:51:21.076Z,98999.81
2018-10-03T14:53:50.377Z,98993.06
2018-10-03T14:56:19.587Z,98989.86
2018-10-03T14:58:48.956Z,98988.63
2018-10-03T15:01:18.064Z,98992.23
2018-10-03T15:03:47.233Z,98996.60
2018-10-03T15:06:16.502Z,98992.84
2018-10-03T15:08:46.558Z,98992.75
2018-10-03T15:11:15.508Z,98993.63
2018-10-03T15:13:44.178Z,98997.41
2018-10-03T15:16:13.152Z,98993.53
2018-10-03T15:18:42.640Z,98996.75
2018-10-03T15:21:11.868Z,98997.31
2018-10-03T15:23:41.137Z,98996.49
2018-10-03T15:26:10.161Z,98991.98
2018-10-03T15:28:39.496Z,98993.63
2018-10-03T15:31:08.953Z,98986.84
2018-10-03T15:33:38.775Z,98998.02
2018-10-03T15:36:08.150Z,98994.89
2018-10-03T15:38:37.555Z,98998.30
2018-10-03T15:41:06.530Z,99002.54
2018-10-03T15:43:35.962Z,98998.67
2018-10-03T15:46:04.988Z,98998.25
2018-10-03T15:48:33.868Z,99004.09
2018-10-03T15:51:02.782Z,99007.70
2018-10-03T15:53:31.733Z,99009.22
2018-10-03T15:56:01.165Z,99009.39
2018-10-03T15:58:31.271Z,99009.59
2018-10-03T16:01:00.375Z,99015.78
2018-10-03T16:03:29.628Z,99022.11
2018-10-03T16:05:58.808Z,99024.63
2018-10-03T16:08:28.024Z,99016.33
2018-10-03T16:10:57.198Z,99021.78
2018-10-03T16:13:26.299Z,99021.03
2018-10-03T16:15:55.769Z,99022.02
2018-10-03T16:18:24.840Z,99022.77
2018-10-03T16:20:53.816Z,99033.05
2018-10-03T16:23:23.411Z,99035.13
2018-10-03T16:25:52.112Z,99037.20
2018-10-03T16:28:21.824Z,99041.81
2018-10-03T16:30:51.061Z,99045.09
2018-10-03T16:33:20.277Z,99043.43
2018-10-03T16:35:49.070Z,99035.34
2018-10-03T16:38:19.122Z,99045.42
2018-10-03T16:40:47.944Z,99043.61
2018-10-03T16:43:17.189Z,99038.65
2018-10-03T16:45:46.272Z,99037.09
2018-10-03T16:48:15.120Z,99036.91
2018-10-03T16:50:45.364Z,99039.98
2018-10-03T16:53:14.082Z,99046.14
2018-10-03T16:55:43.038Z,99048.98
2018-10-03T16:58:11.964Z,99051.70
2018-10-03T17:00:41.007Z,99059.45
2018-10-03T17:03:09.959Z,99058.04
2018-10-03T17:05:38.768Z,99055.13
2018-10-03T17:08:08.388Z,99053.93
2018-10-03T17:10:38.442Z,99053.17
2018-10-03T17:13:07.849Z,99057.20
2018-10-03T17:15:37.610Z,99062.60
2018-10-03T17:18:07.142Z,99070.27
2018-10-03T17:20:36.408Z,99069.36
2018-10-03T17:23:05.748Z,99077.60
2018-10-03T17:25:34.794Z,99078.47
2018-10-03T17:28:03.723Z,99079.08
2018-10-03T17:30:33.428Z,99084.59
2018-10-03T17:33:03.574Z,99080.89
2018-10-03T17:35:32.770Z,99086.41
2018-10-03T17:38:02.972Z,99089.47
2018-10-03T17:40:32.312Z,99085.84
2018-10-03T17:43:01.643Z,99088.36
2018-10-03T17:45:30.880Z,99088.15
2018-10-03T17:47:59.873Z,99084.42
2018-10-03T17:50:29.004Z,99095.68
2018-10-03T17:52:58.345Z,99103.13
2018-10-03T17:55:27.250Z,99103.70
2018-10-03T17:57:56.703Z,99107.02
2018-10-03T18:00:25.720Z,99115.77
2018-10-03T18:02:54.890Z,99115.52
2018-10-03T18:05:23.584Z,99111.23
2018-10-03T18:07:52.597Z,99113.15
2018-10-03T18:10:21.769Z,99118.32
2018-10-03T18:12:51.083Z,99114.88
2018-10-03T18:15:20.255Z,99113.58
2018-10-03T18:17:49.135Z,99116.34
2018-10-03T18:20:17.868Z,99117.68
2018-10-03T18:22:47.128Z,99115.57
2018-10-03T18:25:15.809Z,99121.31
2018-10-03T18:27:46.426Z,99122.22
2018-10-03T18:30:15.860Z,99120.06
2018-10-03T18:32:45.035Z,99120.92
2018-10-03T18:35:14.279Z,99122.05
2018-10-03T18:37:43.663Z,99116.39
2018-10-03T18:40:12.928Z,99113.17
2018-10-03T18:42:42.116Z,99123.73
2018-10-03T18:45:11.554Z,99119.69
2018-10-03T18:47:40.691Z,99127.02
2018-10-03T18:50:11.493Z,99123.77
2018-10-03T18:52:40.910Z,99130.28
2018-10-03T18:55:10.424Z,99128.93
2018-10-03T18:57:41.203Z,99138.39
2018-10-03T19:00:10.668Z,99137.05
2018-10-03T19:02:40.154Z,99134.36
2018-10-03T19:05:11.084Z,99136.26
2018-10-03T19:07:41.185Z,99137.31
2018-10-03T19:10:10.427Z,99135.67
2018-10-03T19:12:40.042Z,99138.11
2018-10-03T19:15:10.115Z,99144.84
2018-10-03T19:17:39.244Z,99145.09
2018-10-03T19:20:10.430Z,99146.47
2018-10-03T19:22:40.015Z,99148.06
2018-10-03T19:25:09.661Z,99154.25
2018-10-03T19:27:39.093Z,99155.60
2018-10-03T19:30:09.329Z,99153.15
2018-10-03T19:32:38.884Z,99153.40
2018-10-03T19:35:08.176Z,99153.64
2018-10-03T19:37:37.662Z,99149.84
2018-10-03T19:40:06.940Z,99155.80
2018-10-03T19:42:36.114Z,99155.53
2018-10-03T19:45:05.349Z,99156.86
2018-10-03T19:47:34.308Z,99159.00
2018-10-03T19:50:03.473Z,99166.53
2018-10-03T19:52:32.789Z,99168.45
2018-10-03T19:55:02.303Z,99165.17
2018-10-03T19:57:31.244Z,99172.46
2018-10-03T20:00:00.601Z,99167.32
2018-10-03T20:02:29.545Z,99170.27
2018-10-03T20:04:58.753Z,99170.83
2018-10-03T20:07:28.023Z,99170.50
2018-10-03T20:09:57.492Z,99172.94
2018-10-03T20:12:26.621Z,99174.56
2018-10-03T20:14:56.619Z,99174.80
2018-10-03T20:17:25.925Z,99173.70
2018-10-03T20:19:55.904Z,99178.05
2018-10-03T20:22:24.990Z,99170.72
2018-10-03T20:24:54.118Z,99177.17
2018-10-03T20:27:24.066Z,99173.91
2018-10-03T20:29:52.961Z,99174.42
2018-10-03T20:32:22.122Z,99177.37
2018-10-03T20:34:50.978Z,99173.08
2018-10-03T20:37:20.874Z,99173.85
2018-10-03T20:39:49.817Z,99170.30
2018-10-03T20:42:18.708Z,99175.12
2018-10-03T20:44:47.615Z,99178.31
2018-10-03T20:47:16.574Z,99181.52
2018-10-03T20:49:45.643Z,99183.66
2018-10-03T20:52:15.032Z,99171.75
2018-10-03T20:54:44.098Z,99177.67
2018-10-03T20:57:13.263Z,99178.47
2018-10-03T20:59:42.885Z,99169.31
2018-10-03T21:02:11.821Z,99175.78
2018-10-03T21:04:40.601Z,99176.02
2018-10-03T21:07:09.663Z,99174.34
2018-10-03T21:09:38.465Z,99173.72
2018-10-03T21:12:07.759Z,99176.66
2018-10-03T21:14:37.069Z,99178.56
2018-10-03T21:17:06.131Z,99176.87
2018-10-03T21:19:35.359Z,99176.03
2018-10-03T21:22:04.754Z,99183.53
2018-10-03T21:24:33.842Z,99182.42
2018-10-03T21:27:02.905Z,99183.16
2018-10-03T21:29:32.258Z,99180.41
2018-10-03T21:32:01.422Z,99184.35
2018-10-03T21:34:30.915Z,99181.42
2018-10-03T21:37:00.061Z,99189.51
2018-10-03T21:39:29.250Z,99187.37
2018-10-03T21:41:58.574Z,99190.33
2018-10-03T21:44:27.578Z,99191.05
2018-10-03T21:46:57.048Z,99190.20
2018-10-03T21:49:26.105Z,99190.99
2018-10-03T21:51:55.235Z,99192.92
2018-10-03T21:54:24.066Z,99191.02
2018-10-03T21:56:52.845Z,99191.28
2018-10-03T21:59:22.019Z,99195.79
2018-10-03T22:01:52.343Z,99209.25
2018-10-03T22:04:21.016Z,99208.82
2018-10-03T22:06:50.591Z,99211.28
2018-10-03T22:09:19.521Z,99205.11
2018-10-03T22:11:48.240Z,99199.23
2018-10-03T22:14:17.188Z,99195.71
2018-10-03T22:16:46.693Z,99189.73
2018-10-03T22:19:15.976Z,99195.09
2018-10-03T22:21:44.979Z,99194.30
2018-10-03T22:24:13.998Z,99192.66
2018-10-03T22:26:43.595Z,99196.08
2018-10-03T22:29:12.467Z,99190.95
2018-10-03T22:31:41.888Z,99195.79
2018-10-03T22:34:10.661Z,99195.42
2018-10-03T22:36:40.290Z,99192.92
2018-10-03T22:39:09.900Z,99190.06
2018-10-03T22:41:38.701Z,99188.72
2018-10-03T22:44:07.971Z,99186.55
2018-10-03T22:46:36.872Z,99186.18
2018-10-03T22:49:06.504Z,99189.05
2018-10-03T22:51:35.261Z,99187.71
2018-10-03T22:54:04.065Z,99184.50
2018-10-03T22:56:33.074Z,99186.63
2018-10-03T22:59:02.185Z,99191.56
2018-10-03T23:01:31.065Z,99195.19
2018-10-03T23:03:59.795Z,99190.17
2018-10-03T23:06:29.009Z,99192.93
2018-10-03T23:08:58.190Z,99192.47
2018-10-03T23:11:26.886Z,99194.44
2018-10-03T23:13:55.754Z,99197.98
2018-10-03T23:16:25.119Z,99200.25
2018-10-03T23:18:55.318Z,99202.19
2018-10-03T23:21:24.385Z,99203.59
2018-10-03T23:23:53.639Z,99199.34
2018-10-03T23:26:22.769Z,99203.18
2018-10-03T23:28:51.849Z,99207.52
2018-10-03T23:31:21.460Z,99206.48
2018-10-03T23:33:50.344Z,99202.68
2018-10-03T23:36:19.319Z,99205.72
2018-10-03T23:38:48.024Z,99204.11
2018-10-03T23:41:17.339Z,99201.67
2018-10-03T23:43:45.966Z,99202.77
2018-10-03T23:46:14.814Z,99209.53
2018-10-03T23:48:43.486Z,99204.66
2018-10-03T23:51:13.081Z,99205.52
2018-10-03T23:53:42.162Z,99211.16
2018-10-03T23:56:11.024Z,99207.41
2018-10-03T23:58:39.779Z,99219.59
